createdAt,value
2017-10-22T14:39:35.584Z,956.27
2017-10-22T14:40:35.575Z,956.27
2017-10-22T14:41:35.592Z,956.27
2017-10-22T14:42:35.610Z,956.24
2017-10-22T14:43:35.621Z,956.25
2017-10-22T14:44:35.644Z,956.28
2017-10-22T14:45:35.657Z,956.23
2017-10-22T14:46:35.671Z,956.24
2017-10-22T14:47:35.709Z,956.27
2017-10-22T14:48:35.757Z,956.25
2017-10-22T14:49:35.734Z,956.3
2017-10-22T14:50:35.742Z,956.4
2017-10-22T14:51:35.778Z,956.31
2017-10-22T14:52:35.792Z,956.29
2017-10-22T14:53:35.816Z,956.29
2017-10-22T14:54:35.830Z,956.23
2017-10-22T14:55:35.838Z,956.23
2017-10-22T14:56:35.844Z,956.27
2017-10-22T14:57:35.868Z,956.2
2017-10-22T14:58:35.891Z,956.21
2017-10-22T14:59:35.919Z,956.21
2017-10-22T15:00:35.927Z,956.15
2017-10-22T15:01:35.938Z,956.19
2017-10-22T15:02:35.957Z,956.1
2017-10-22T15:03:36.026Z,956.06
2017-10-22T15:04:35.995Z,956.09
2017-10-22T15:05:36.045Z,956.09
2017-10-22T15:06:36.070Z,956.07
2017-10-22T15:07:36.122Z,956.1
2017-10-22T15:08:36.105Z,956.11
2017-10-22T15:09:36.094Z,956.12
2017-10-22T15:10:36.113Z,956.17
2017-10-22T15:11:36.206Z,956.12
2017-10-22T15:12:36.155Z,956.1
2017-10-22T15:13:36.182Z,956.14
2017-10-22T15:14:36.194Z,956.12
2017-10-22T15:15:36.210Z,956.09
2017-10-22T15:16:36.240Z,956.12
2017-10-22T15:17:36.251Z,956.14
2017-10-22T15:18:36.272Z,956.14
2017-10-22T15:19:36.290Z,956.16
2017-10-22T15:20:36.361Z,956.14
2017-10-22T15:21:36.331Z,956.17
2017-10-22T15:22:36.407Z,956.23
2017-10-22T15:23:36.405Z,956.27
2017-10-22T15:24:36.433Z,956.16
2017-10-22T15:25:36.434Z,956.18
2017-10-22T15:26:36.438Z,956.13
2017-10-22T15:27:36.514Z,956.12
2017-10-22T15:28:36.473Z,956.11
2017-10-22T15:29:36.535Z,956.14
2017-10-22T15:30:36.573Z,956.13
2017-10-22T15:31:36.538Z,956.15
2017-10-22T15:32:36.562Z,956.14
2017-10-22T15:33:36.575Z,956.17
2017-10-22T15:34:36.598Z,956.17
2017-10-22T15:35:36.681Z,956.23
2017-10-22T15:36:36.636Z,956.2
2017-10-22T15:37:36.657Z,956.24
2017-10-22T15:38:36.678Z,956.26
2017-10-22T15:39:36.722Z,956.26
2017-10-22T15:40:36.719Z,956.25
2017-10-22T15:41:36.742Z,956.25
2017-10-22T15:42:36.761Z,956.28
2017-10-22T15:43:36.788Z,956.25
2017-10-22T15:44:36.800Z,956.26
2017-10-22T15:45:36.828Z,956.3
2017-10-22T15:46:36.842Z,956.34
2017-10-22T15:47:36.861Z,956.32
2017-10-22T15:48:36.890Z,956.35
2017-10-22T15:49:36.901Z,956.31
2017-10-22T15:50:36.977Z,956.33
2017-10-22T15:51:36.947Z,956.35
2017-10-22T15:52:36.965Z,956.29
2017-10-22T15:53:36.989Z,956.3
2017-10-22T15:54:37.004Z,956.27
2017-10-22T15:55:37.028Z,956.29
2017-10-22T15:56:37.050Z,956.26
2017-10-22T15:57:37.063Z,956.24
2017-10-22T15:58:37.085Z,956.21
2017-10-22T15:59:37.105Z,956.18
2017-10-22T16:00:37.128Z,956.24
2017-10-22T16:01:37.267Z,956.31
2017-10-22T16:02:37.169Z,956.22
2017-10-22T16:03:37.188Z,956.26
2017-10-22T16:04:37.206Z,956.23
2017-10-22T16:05:37.276Z,956.25
2017-10-22T16:06:37.243Z,956.22
2017-10-22T16:07:37.266Z,956.24
2017-10-22T16:08:37.288Z,956.21
2017-10-22T16:09:37.311Z,956.24
2017-10-22T16:10:37.323Z,956.26
2017-10-22T16:11:37.347Z,956.27
2017-10-22T16:12:37.367Z,956.27
2017-10-22T16:13:37.386Z,956.3
2017-10-22T16:14:37.408Z,956.3
2017-10-22T16:15:37.427Z,956.3
2017-10-22T16:16:37.443Z,956.27
2017-10-22T16:17:37.459Z,956.32
2017-10-22T16:18:37.483Z,956.29
2017-10-22T16:19:37.501Z,956.31
2017-10-22T16:20:37.569Z,956.32
2017-10-22T16:21:37.539Z,956.36
2017-10-22T16:22:37.559Z,956.35
2017-10-22T16:23:37.582Z,956.45
2017-10-22T16:24:37.596Z,956.39
2017-10-22T16:25:37.620Z,956.42
2017-10-22T16:26:37.641Z,956.39
2017-10-22T16:27:37.653Z,956.41
2017-10-22T16:28:37.700Z,956.43
2017-10-22T16:29:37.694Z,956.42
2017-10-22T16:30:37.714Z,956.39
2017-10-22T16:31:37.734Z,956.36
2017-10-22T16:32:37.751Z,956.4
2017-10-22T16:33:37.772Z,956.37
2017-10-22T16:34:37.787Z,956.46
2017-10-22T16:35:37.822Z,956.46
2017-10-22T16:36:37.828Z,956.48
2017-10-22T16:37:37.850Z,956.47
2017-10-22T16:38:37.864Z,956.46
2017-10-22T16:39:37.934Z,956.47
2017-10-22T16:40:37.914Z,956.45
2017-10-22T16:41:37.932Z,956.59
2017-10-22T16:42:38.033Z,956.5
2017-10-22T16:43:37.977Z,956.55
2017-10-22T16:44:37.979Z,956.53
2017-10-22T16:45:38.002Z,956.57
2017-10-22T16:46:38.015Z,956.52
2017-10-22T16:47:38.033Z,956.46
2017-10-22T16:48:38.054Z,956.53
2017-10-22T16:49:38.074Z,956.55
2017-10-22T16:50:38.101Z,956.45
2017-10-22T16:51:38.109Z,956.46
2017-10-22T16:52:38.130Z,956.47
2017-10-22T16:53:38.145Z,956.43
2017-10-22T16:54:38.214Z,956.4
2017-10-22T16:55:38.180Z,956.4
2017-10-22T16:56:38.202Z,956.45
2017-10-22T16:57:38.232Z,956.43
2017-10-22T16:58:38.238Z,956.47
2017-10-22T16:59:38.263Z,956.43
2017-10-22T17:00:38.273Z,956.45
2017-10-22T17:01:38.294Z,956.48
2017-10-22T17:02:38.323Z,956.48
2017-10-22T17:03:38.339Z,956.51
2017-10-22T17:04:38.349Z,956.55
2017-10-22T17:05:38.389Z,956.54
2017-10-22T17:06:38.391Z,956.54
2017-10-22T17:07:38.406Z,956.56
2017-10-22T17:08:38.421Z,956.53
2017-10-22T17:09:38.490Z,956.5
2017-10-22T17:10:38.463Z,956.54
2017-10-22T17:11:38.484Z,956.56
2017-10-22T17:12:38.498Z,956.56
2017-10-22T17:13:38.524Z,956.56
2017-10-22T17:14:38.531Z,956.54
2017-10-22T17:15:38.549Z,956.56
2017-10-22T17:16:38.569Z,956.58
2017-10-22T17:17:38.586Z,956.62
2017-10-22T17:18:38.611Z,956.67
2017-10-22T17:19:38.625Z,956.64
2017-10-22T17:20:38.643Z,956.67
2017-10-22T17:21:38.665Z,956.67
2017-10-22T17:22:38.696Z,956.69
2017-10-22T17:23:38.706Z,956.7
2017-10-22T17:24:38.766Z,956.75
2017-10-22T17:25:38.742Z,956.72
2017-10-22T17:26:38.758Z,956.73
2017-10-22T17:27:38.779Z,956.73
2017-10-22T17:28:38.791Z,956.76
2017-10-22T17:29:38.813Z,956.75
2017-10-22T17:30:38.838Z,956.76
2017-10-22T17:31:38.847Z,956.77
2017-10-22T17:32:38.874Z,956.81
2017-10-22T17:33:38.888Z,956.8
2017-10-22T17:34:38.903Z,956.79
2017-10-22T17:35:38.921Z,956.8
2017-10-22T17:36:38.994Z,956.89
2017-10-22T17:37:38.963Z,956.93
2017-10-22T17:38:38.983Z,956.92
2017-10-22T17:39:38.994Z,956.8
2017-10-22T17:40:39.014Z,956.9
2017-10-22T17:41:39.039Z,956.93
2017-10-22T17:42:39.056Z,957
2017-10-22T17:43:39.072Z,956.99
2017-10-22T17:44:39.090Z,957.01
2017-10-22T17:45:39.106Z,957.01
2017-10-22T17:46:39.128Z,957.05
2017-10-22T17:47:39.144Z,957.05
2017-10-22T17:48:39.168Z,957.12
2017-10-22T17:49:39.184Z,957.14
2017-10-22T17:50:39.218Z,957.13
2017-10-22T17:51:39.223Z,957.21
2017-10-22T17:52:39.246Z,957.21
2017-10-22T17:53:39.260Z,957.31
2017-10-22T17:54:39.276Z,957.33
2017-10-22T17:55:39.294Z,957.41
2017-10-22T17:56:39.313Z,957.39
2017-10-22T17:57:39.335Z,957.33
2017-10-22T17:58:39.349Z,957.46
2017-10-22T17:59:39.380Z,957.56
2017-10-22T18:00:39.386Z,957.34
2017-10-22T18:01:39.406Z,957.54
2017-10-22T18:02:39.423Z,957.55
2017-10-22T18:03:39.446Z,957.58
2017-10-22T18:04:39.458Z,957.68
2017-10-22T18:05:39.476Z,957.66
2017-10-22T18:06:39.494Z,957.64
2017-10-22T18:07:39.513Z,957.64
2017-10-22T18:08:39.532Z,957.61
2017-10-22T18:09:39.700Z,957.66
2017-10-22T18:10:39.569Z,957.56
2017-10-22T18:11:39.585Z,957.53
2017-10-22T18:12:39.612Z,957.51
2017-10-22T18:13:39.622Z,957.57
2017-10-22T18:14:39.640Z,957.6
2017-10-22T18:15:39.656Z,957.61
2017-10-22T18:16:39.679Z,957.53
2017-10-22T18:17:39.701Z,957.51
2017-10-22T18:18:39.714Z,957.47
2017-10-22T18:19:39.733Z,957.39
2017-10-22T18:20:39.748Z,957.36
2017-10-22T18:21:39.769Z,957.38
2017-10-22T18:22:39.782Z,957.36
2017-10-22T18:23:39.799Z,957.34
2017-10-22T18:24:39.817Z,957.37
2017-10-22T18:25:39.887Z,957.36
2017-10-22T18:26:39.856Z,957.35
2017-10-22T18:27:39.875Z,957.34
2017-10-22T18:28:39.891Z,957.35
2017-10-22T18:29:39.908Z,957.34
2017-10-22T18:30:39.925Z,957.31
2017-10-22T18:31:39.950Z,957.35
2017-10-22T18:32:39.961Z,957.31
2017-10-22T18:33:39.978Z,957.32
2017-10-22T18:34:39.999Z,957.36
2017-10-22T18:35:40.016Z,957.34
2017-10-22T18:36:40.057Z,957.37
2017-10-22T18:37:40.052Z,957.38
2017-10-22T18:38:40.070Z,957.43
2017-10-22T18:39:40.087Z,957.48
2017-10-22T18:40:40.186Z,957.5
2017-10-22T18:41:40.127Z,957.48
2017-10-22T18:42:40.158Z,957.49
2017-10-22T18:43:40.157Z,957.56
2017-10-22T18:44:40.179Z,957.58
2017-10-22T18:45:40.192Z,957.56
2017-10-22T18:46:40.213Z,957.55
2017-10-22T18:47:40.228Z,957.53
2017-10-22T18:48:40.249Z,957.51
2017-10-22T18:49:40.263Z,957.52
2017-10-22T18:50:40.282Z,957.55
2017-10-22T18:51:40.297Z,957.58
2017-10-22T18:52:40.314Z,957.6
2017-10-22T18:53:40.336Z,957.55
2017-10-22T18:54:40.353Z,957.57
2017-10-22T18:55:40.371Z,957.55
2017-10-22T18:56:40.397Z,957.53
2017-10-22T18:57:40.458Z,957.53
2017-10-22T18:58:40.423Z,957.57
2017-10-22T18:59:40.443Z,957.57
2017-10-22T19:00:40.457Z,957.58
2017-10-22T19:01:40.476Z,957.6
2017-10-22T19:02:40.499Z,957.59
2017-10-22T19:03:40.514Z,957.61
2017-10-22T19:04:40.534Z,957.63
2017-10-22T19:05:40.548Z,957.67
2017-10-22T19:06:40.567Z,957.66
2017-10-22T19:07:40.581Z,957.68
2017-10-22T19:08:40.601Z,957.7
2017-10-22T19:09:40.621Z,957.71
2017-10-22T19:10:40.638Z,957.75
2017-10-22T19:11:40.653Z,957.75
2017-10-22T19:12:40.671Z,957.79
2017-10-22T19:13:40.694Z,957.77
2017-10-22T19:14:40.712Z,957.81
2017-10-22T19:15:40.771Z,957.82
2017-10-22T19:16:40.741Z,957.78
2017-10-22T19:17:40.758Z,957.84
2017-10-22T19:18:40.781Z,957.83
2017-10-22T19:19:40.805Z,957.79
2017-10-22T19:20:40.815Z,957.85
2017-10-22T19:21:40.829Z,957.84
2017-10-22T19:22:40.849Z,957.8
2017-10-22T19:23:40.871Z,957.84
2017-10-22T19:24:40.884Z,957.85
2017-10-22T19:25:40.901Z,957.83
2017-10-22T19:26:40.922Z,957.83
2017-10-22T19:27:40.936Z,957.84
2017-10-22T19:28:40.955Z,957.85
2017-10-22T19:29:40.972Z,957.9
2017-10-22T19:30:40.989Z,957.83
2017-10-22T19:31:41.064Z,957.89
2017-10-22T19:32:41.026Z,957.88
2017-10-22T19:33:41.044Z,957.83
2017-10-22T19:34:41.080Z,957.86
2017-10-22T19:35:41.078Z,957.87
2017-10-22T19:36:41.094Z,957.89
2017-10-22T19:37:41.112Z,957.9
2017-10-22T19:38:41.128Z,957.84
2017-10-22T19:39:41.149Z,957.82
2017-10-22T19:40:41.164Z,957.84
2017-10-22T19:41:41.182Z,957.8
2017-10-22T19:42:41.201Z,957.76
2017-10-22T19:43:41.221Z,957.85
2017-10-22T19:44:41.255Z,957.81
2017-10-22T19:45:41.251Z,957.78
2017-10-22T19:46:41.269Z,957.71
2017-10-22T19:47:41.288Z,957.82
2017-10-22T19:48:41.304Z,957.77
2017-10-22T19:49:41.373Z,957.78
2017-10-22T19:50:41.346Z,957.81
2017-10-22T19:51:41.358Z,957.84
2017-10-22T19:52:41.379Z,957.84
2017-10-22T19:53:41.394Z,957.82
2017-10-22T19:54:41.410Z,957.87
2017-10-22T19:55:41.431Z,957.85
2017-10-22T19:56:41.448Z,957.91
2017-10-22T19:57:41.461Z,957.87
2017-10-22T19:58:41.478Z,957.9
2017-10-22T19:59:41.500Z,957.87
2017-10-22T20:00:41.512Z,957.88
2017-10-22T20:01:41.537Z,957.88
2017-10-22T20:02:41.549Z,957.84
2017-10-22T20:03:41.569Z,957.86
2017-10-22T20:04:41.583Z,957.89
2017-10-22T20:05:41.654Z,957.84
2017-10-22T20:06:41.619Z,957.85
2017-10-22T20:07:41.635Z,957.82
2017-10-22T20:08:41.652Z,957.84
2017-10-22T20:09:41.670Z,957.87
2017-10-22T20:10:41.690Z,957.83
2017-10-22T20:11:41.709Z,957.89
2017-10-22T20:12:41.721Z,957.88
2017-10-22T20:13:41.747Z,957.87
2017-10-22T20:14:41.764Z,957.91
2017-10-22T20:15:41.773Z,957.86
2017-10-22T20:16:41.896Z,957.89
2017-10-22T20:17:41.809Z,957.88
2017-10-22T20:18:41.823Z,957.85
2017-10-22T20:19:41.844Z,957.91
2017-10-22T20:20:41.860Z,957.92
2017-10-22T20:21:41.885Z,957.93
2017-10-22T20:22:41.893Z,957.96
2017-10-22T20:23:41.912Z,957.95
2017-10-22T20:24:41.934Z,957.99
2017-10-22T20:25:41.946Z,958.01
2017-10-22T20:26:41.964Z,957.94
2017-10-22T20:27:41.980Z,958.01
2017-10-22T20:28:41.996Z,958.02
2017-10-22T20:29:42.016Z,958.04
2017-10-22T20:30:42.034Z,958.04
2017-10-22T20:31:42.050Z,958
2017-10-22T20:32:42.068Z,958.02
2017-10-22T20:33:42.089Z,957.96
2017-10-22T20:34:42.104Z,957.98
2017-10-22T20:35:42.119Z,957.99
2017-10-22T20:36:42.136Z,957.95
2017-10-22T20:37:42.157Z,957.96
2017-10-22T20:38:42.170Z,957.94
2017-10-22T20:39:42.190Z,957.96
2017-10-22T20:40:42.205Z,957.95
2017-10-22T20:41:42.483Z,957.96
2017-10-22T20:42:42.238Z,957.97
2017-10-22T20:43:42.260Z,957.99
2017-10-22T20:44:42.276Z,957.99
2017-10-22T20:45:42.294Z,957.95
2017-10-22T20:46:42.312Z,957.93
2017-10-22T20:47:42.327Z,957.92
2017-10-22T20:48:42.346Z,957.91
2017-10-22T20:49:42.362Z,957.95
2017-10-22T20:50:42.381Z,957.93
2017-10-22T20:51:42.397Z,957.96
2017-10-22T20:52:42.417Z,957.98
2017-10-22T20:53:42.463Z,957.95
2017-10-22T20:54:42.449Z,957.92
2017-10-22T20:55:42.465Z,957.86
2017-10-22T20:56:42.491Z,957.86
2017-10-22T20:57:42.501Z,957.85
2017-10-22T20:58:42.525Z,957.79
2017-10-22T20:59:42.536Z,957.77
2017-10-22T21:00:42.604Z,957.77
2017-10-22T21:01:42.573Z,957.76
2017-10-22T21:02:42.589Z,957.73
2017-10-22T21:03:42.632Z,957.7
2017-10-22T21:04:42.630Z,957.7
2017-10-22T21:05:42.644Z,957.69
2017-10-22T21:06:42.659Z,957.74
2017-10-22T21:07:42.678Z,957.74
2017-10-22T21:08:42.696Z,957.7
2017-10-22T21:09:42.713Z,957.7
2017-10-22T21:10:42.730Z,957.7
2017-10-22T21:11:42.748Z,957.71
2017-10-22T21:12:42.765Z,957.63
2017-10-22T21:13:42.783Z,957.7
2017-10-22T21:14:42.801Z,957.66
2017-10-22T21:15:42.820Z,957.69
2017-10-22T21:16:42.843Z,957.66
2017-10-22T21:17:42.904Z,957.71
2017-10-22T21:18:42.870Z,957.7
2017-10-22T21:19:42.918Z,957.8
2017-10-22T21:20:42.907Z,957.77
2017-10-22T21:21:42.927Z,957.78
2017-10-22T21:22:42.944Z,957.78
2017-10-22T21:23:42.960Z,957.76
2017-10-22T21:24:42.975Z,957.78
2017-10-22T21:25:43.003Z,957.73
2017-10-22T21:26:43.013Z,957.83
2017-10-22T21:27:43.031Z,957.81
2017-10-22T21:28:43.048Z,957.79
2017-10-22T21:29:43.069Z,957.84
2017-10-22T21:30:43.090Z,957.78
2017-10-22T21:31:43.099Z,957.78
2017-10-22T21:32:43.168Z,957.75
2017-10-22T21:33:43.136Z,957.76
2017-10-22T21:34:43.161Z,957.77
2017-10-22T21:35:43.172Z,957.79
2017-10-22T21:36:43.190Z,957.77
2017-10-22T21:37:43.207Z,957.82
2017-10-22T21:38:43.229Z,957.84
2017-10-22T21:39:43.244Z,957.85
2017-10-22T21:40:43.268Z,957.82
2017-10-22T21:41:43.276Z,957.83
2017-10-22T21:42:43.294Z,957.86
2017-10-22T21:43:43.314Z,957.88
2017-10-22T21:44:43.330Z,957.88
2017-10-22T21:45:43.348Z,957.82
2017-10-22T21:46:43.367Z,957.9
2017-10-22T21:47:43.383Z,957.9
2017-10-22T21:48:43.451Z,957.89
2017-10-22T21:49:43.419Z,957.9
2017-10-22T21:50:43.438Z,957.86
2017-10-22T21:51:43.456Z,957.85
2017-10-22T21:52:43.472Z,957.86
2017-10-22T21:53:43.492Z,957.82
2017-10-22T21:54:43.509Z,957.83
2017-10-22T21:55:43.552Z,957.83
2017-10-22T21:56:43.545Z,957.79
2017-10-22T21:57:43.564Z,957.78
2017-10-22T21:58:43.585Z,957.73
2017-10-22T21:59:43.603Z,957.77
2017-10-22T22:00:43.617Z,957.78
2017-10-22T22:01:43.632Z,957.7
2017-10-22T22:02:43.652Z,957.77
2017-10-22T22:03:43.670Z,957.75
2017-10-22T22:04:43.686Z,957.76
2017-10-22T22:05:43.703Z,957.74
2017-10-22T22:06:43.724Z,957.76
2017-10-22T22:07:44.093Z,957.73
2017-10-22T22:08:43.769Z,957.71
2017-10-22T22:09:43.782Z,957.78
2017-10-22T22:10:43.795Z,957.72
2017-10-22T22:11:43.814Z,957.75
2017-10-22T22:12:43.833Z,957.7
2017-10-22T22:13:43.848Z,957.71
2017-10-22T22:14:43.865Z,957.65
2017-10-22T22:15:43.884Z,957.64
2017-10-22T22:16:43.904Z,957.68
2017-10-22T22:17:43.918Z,957.66
2017-10-22T22:18:43.936Z,957.68
2017-10-22T22:19:43.957Z,957.68
2017-10-22T22:20:43.971Z,957.65
2017-10-22T22:21:44.020Z,957.67
2017-10-22T22:22:44.011Z,957.72
2017-10-22T22:23:44.024Z,957.66
2017-10-22T22:24:44.044Z,957.63
2017-10-22T22:25:44.065Z,957.6
2017-10-22T22:26:44.126Z,957.61
2017-10-22T22:27:44.093Z,957.66
2017-10-22T22:28:44.112Z,957.61
2017-10-22T22:29:44.131Z,957.59
2017-10-22T22:30:44.149Z,957.57
2017-10-22T22:31:44.168Z,957.6
2017-10-22T22:32:44.187Z,957.57
2017-10-22T22:33:44.209Z,957.51
2017-10-22T22:34:44.219Z,957.53
2017-10-22T22:35:44.239Z,957.51
2017-10-22T22:36:44.254Z,957.56
2017-10-22T22:37:44.272Z,957.52
2017-10-22T22:38:44.290Z,957.49
2017-10-22T22:39:44.309Z,957.51
2017-10-22T22:40:44.339Z,957.54
2017-10-22T22:41:44.345Z,957.52
2017-10-22T22:42:44.363Z,957.5
2017-10-22T22:43:44.376Z,957.53
2017-10-22T22:44:44.398Z,957.49
2017-10-22T22:45:44.409Z,957.5
2017-10-22T22:46:44.436Z,957.51
2017-10-22T22:47:44.466Z,957.49
2017-10-22T22:48:44.464Z,957.49
2017-10-22T22:49:44.484Z,957.47
2017-10-22T22:50:44.502Z,957.49
2017-10-22T22:51:44.517Z,957.45
2017-10-22T22:52:44.536Z,957.49
2017-10-22T22:53:44.554Z,957.51
2017-10-22T22:54:44.567Z,957.48
2017-10-22T22:55:44.586Z,957.54
2017-10-22T22:56:44.607Z,957.5
2017-10-22T22:57:44.621Z,957.48
2017-10-22T22:58:44.690Z,957.51
2017-10-22T22:59:44.654Z,957.51
2017-10-22T23:00:44.673Z,957.51
2017-10-22T23:01:44.690Z,957.54
2017-10-22T23:02:44.708Z,957.49
2017-10-22T23:03:44.728Z,957.53
2017-10-22T23:04:44.740Z,957.54
2017-10-22T23:05:44.760Z,957.48
2017-10-22T23:06:44.775Z,957.59
2017-10-22T23:07:44.795Z,957.48
2017-10-22T23:08:44.814Z,957.52
2017-10-22T23:09:44.833Z,957.48
2017-10-22T23:10:44.846Z,957.52
2017-10-22T23:11:44.862Z,957.48
2017-10-22T23:12:44.882Z,957.47
2017-10-22T23:13:44.949Z,957.41
2017-10-22T23:14:44.915Z,957.47
2017-10-22T23:15:44.934Z,957.47
2017-10-22T23:16:44.958Z,957.48
2017-10-22T23:17:44.968Z,957.46
2017-10-22T23:18:44.990Z,957.47
2017-10-22T23:19:44.998Z,957.51
2017-10-22T23:20:45.017Z,957.51
2017-10-22T23:21:45.033Z,957.48
2017-10-22T23:22:45.054Z,957.5
2017-10-22T23:23:45.068Z,957.48
2017-10-22T23:24:45.105Z,957.48
2017-10-22T23:25:45.107Z,957.49
2017-10-22T23:26:45.121Z,957.47
2017-10-22T23:27:45.141Z,957.49
2017-10-22T23:28:45.158Z,957.44
2017-10-22T23:29:45.174Z,957.36
2017-10-22T23:30:45.189Z,957.39
2017-10-22T23:31:45.206Z,957.39
2017-10-22T23:32:45.222Z,957.43
2017-10-22T23:33:45.240Z,957.39
2017-10-22T23:34:45.258Z,957.35
2017-10-22T23:35:45.275Z,957.38
2017-10-22T23:36:45.291Z,957.32
2017-10-22T23:37:45.309Z,957.31
2017-10-22T23:38:45.331Z,957.36
2017-10-22T23:39:45.342Z,957.3
2017-10-22T23:40:45.363Z,957.35
2017-10-22T23:41:45.378Z,957.32
2017-10-22T23:42:45.395Z,957.38
2017-10-22T23:43:45.409Z,957.37
2017-10-22T23:44:45.433Z,957.34
2017-10-22T23:45:45.447Z,957.32
2017-10-22T23:46:45.467Z,957.35
2017-10-22T23:47:45.478Z,957.33
2017-10-22T23:48:45.500Z,957.34
2017-10-22T23:49:45.513Z,957.33
2017-10-22T23:50:45.529Z,957.25
2017-10-22T23:51:45.606Z,957.29
2017-10-22T23:52:45.576Z,957.26
2017-10-22T23:53:45.583Z,957.24
2017-10-22T23:54:45.608Z,957.31
2017-10-22T23:55:45.615Z,957.25
2017-10-22T23:56:45.633Z,957.26
2017-10-22T23:57:45.653Z,957.26
2017-10-22T23:58:45.669Z,957.25
2017-10-22T23:59:45.682Z,957.3
